AirNav   Duncan Aviation - Near you to keep you flying
 
 856 users online  

9IS0 Cedar Ridge Airport
Nauvoo, Illinois, USA

GOING TO NAUVOO?


FAA INFORMATION EFFECTIVE 01 DECEMBER 2022

Location

FAA Identifier: 9IS0
Lat/Long: 40-32-35.1530N 091-19-50.5430W
40-32.585883N 091-19.842383W
40.5430981,-91.3307064
(estimated)
Elevation: 680 ft. / 207 m (estimated)
Variation: 01E (2000)
From city: 3 miles E of NAUVOO, IL
Time zone: UTC -6 (UTC -5 during Daylight Saving Time)
Zip code: 62354

Airport Operations

Airport use: Private use. Permission required prior to landing
Activation date: 03/1986
Control tower: no
ARTCC: CHICAGO CENTER
FSS: SAINT LOUIS FLIGHT SERVICE STATION
NOTAMs facility: FDC (NOTAM-D service not available)
Attendance: CONTINUOUS
Wind indicator: yes
Segmented circle: no
Lights: ACTVT LIRL RY 09/27 - CTAF.

Airport Communications

WX AWOS-3 at EOK (7 nm SW): 118.375 (319-524-7884)
WX AWOS-3 at FSW (7 nm N): 120.925 (319-372-5147)
WX ASOS at BRL (17 nm NE): 118.025 (319-752-6246)

Nearby radio navigation aids

VOR radial/distance  VOR name  Freq  Var
BRLr235/21.4BURLINGTON VOR/DME111.4005E

 
NDB name  Hdg/Dist  Freq  Var  ID
KEOKUK043/6.636602EEOK . --- -.-
BURNS234/11.639001EBR -... .-.
MACOMB271/35.225101EJZY .--- --.. -.--

Airport Services

Fuel available: A

Runway Information

Runway 9/27

Dimensions: 3408 x 70 ft. / 1039 x 21 m
Surface: asphalt
Runway edge lights: low intensity
RUNWAY 9  RUNWAY 27
Traffic pattern: leftleft
Displaced threshold: no200 ft.
Touchdown point: yes, no lightsyes, no lights
Obstructions: 25 ft. tree, 500 ft. from runway, 12:1 slope to clear15 ft. road, 25 ft. from runway

Airport Ownership and Management from official FAA records

Ownership: Privately-owned
Owner: ROBERT J. ZIEGLER
2332 N.C.R. 900
NAUVOO, IL 62354
Phone 319-470-3500
Manager: ROBERT J. ZIEGLER
2332 N.C.R. 900
NAUVOO, IL 62354
Phone 319-470-3500

Airport Operational Statistics

Aircraft based on the field: 2
Single engine airplanes: 2
    

Additional Remarks

FOR CD CTC CHICAGO ARTCC AT 630-906-8921.

Instrument Procedures

There are no published instrument procedures at 9IS0.

Some nearby airports with instrument procedures:

KEOK - Keokuk Municipal Airport (7 nm SW)
KFSW - Fort Madison Municipal Airport (7 nm N)
KBRL - Southeast Iowa Regional Airport (17 nm NE)
KMPZ - Mount Pleasant Municipal Airport (26 nm N)
6M6 - Lewis County Regional Airport (29 nm SW)
 
Loc | Ops | Rwys | IFR | FBO | Links
Com | Nav | Svcs | Stats | Notes
Area around 9IS0 (Cedar Ridge Airport)
 
Road maps at: MapQuest Bing Google
 
Aerial photo
No photo
 
Sectional chart

 
Airport distance calculator
Flying to Cedar Ridge Airport? Find the distance to fly.

From to 9IS0

Sunrise and sunset
Times for 07-Dec-2022
 Local
(UTC-6)
 Zulu
(UTC)
Morning civil twilight06:4612:46
Sunrise07:1613:16
Sunset16:3722:37
Evening civil twilight17:0823:08

Current date and time
Zulu (UTC)  07-Dec-2022 13:00:39
Local (UTC-6)  07-Dec-2022 07:00:39
 
METAR
KEOK 
6nm SW 
071235Z AUTO 00000KT 1 1/2SM BR SCT014 SCT020 BKN026 M00/M00 A3018 RMK A01
KFSW 
7nm N 
071235Z AUTO 00000KT M1/4SM FZFG M02/M02 A3017 RMK AO2
KBRL 
16nm NE 
071253Z AUTO 00000KT 1/4SM FZFG VV001 M02/M03 A3019 RMK AO2 SLP229 I1000 T10221028
TAF
KBRL 
16nm NE 
071134Z 0712/0812 VRB03KT 1/4SM FG VV001 TEMPO 0714/0716 1SM BR OVC003 FM071600 VRB04KT P6SM SCT040 FM080000 02005KT P6SM SCT250
NOTAMs
Click for the latest NOTAMs
NOTAMs are issued by the DoD/FAA and will open in a separate window not controlled by AirNav.

 

 
 

Would you like to see your business listed on this page?

 If your business provides an interesting product or service to pilots, flight crews, aircraft, or users of the Cedar Ridge Airport, you should consider listing it here.  To start the listing process, click on the button below
 
Add a business
 

Other Pages about Cedar Ridge Airport

Update a link
 
Copyright © AirNav, LLC. All rights reserved. Privacy Policy  Contact